createdAt,value
2018-07-23T00:01:09.196Z,99.90
2018-07-23T00:03:37.425Z,99.90
2018-07-23T00:06:05.667Z,99.90
2018-07-23T00:08:33.863Z,99.90
2018-07-23T00:11:02.075Z,99.90
2018-07-23T00:13:30.279Z,99.90
2018-07-23T00:15:58.472Z,99.90
2018-07-23T00:18:26.765Z,99.90
2018-07-23T00:20:55.040Z,99.90
2018-07-23T00:23:23.234Z,99.90
2018-07-23T00:25:51.518Z,99.90
2018-07-23T00:28:19.814Z,99.90
2018-07-23T00:30:48.069Z,99.90
2018-07-23T00:33:16.278Z,99.90
2018-07-23T00:38:12.473Z,99.90
2018-07-23T00:40:40.694Z,99.90
2018-07-23T00:43:08.906Z,99.90
2018-07-23T00:48:05.299Z,99.90
2018-07-23T00:50:33.500Z,99.90
2018-07-23T00:53:01.705Z,99.90
2018-07-23T00:55:29.891Z,99.90
2018-07-23T01:00:26.198Z,99.90
2018-07-23T01:02:54.462Z,99.90
2018-07-23T01:05:22.646Z,99.90
2018-07-23T01:07:50.930Z,99.90
2018-07-23T01:10:19.103Z,99.90
2018-07-23T01:12:47.302Z,99.90
2018-07-23T01:15:15.516Z,99.90
2018-07-23T01:17:43.718Z,99.90
2018-07-23T01:20:12.029Z,99.90
2018-07-23T01:22:40.236Z,99.90
2018-07-23T01:25:08.432Z,99.90
2018-07-23T01:27:36.634Z,99.90
2018-07-23T01:30:05.300Z,99.90
2018-07-23T01:32:33.496Z,99.90
2018-07-23T01:35:01.711Z,99.90
2018-07-23T01:37:29.944Z,99.90
2018-07-23T01:39:58.126Z,99.90
2018-07-23T01:42:26.342Z,99.90
2018-07-23T01:44:54.526Z,99.90
2018-07-23T01:47:22.743Z,99.90
2018-07-23T01:49:50.988Z,99.90
2018-07-23T01:52:19.295Z,99.90
2018-07-23T01:54:47.585Z,99.90
2018-07-23T01:57:15.830Z,99.90
2018-07-23T01:59:44.069Z,99.90
2018-07-23T02:02:12.407Z,99.90
2018-07-23T02:04:40.620Z,99.90
2018-07-23T02:07:09.010Z,99.90
2018-07-23T02:09:37.218Z,99.90
2018-07-23T02:12:05.816Z,99.90
2018-07-23T02:14:34.002Z,99.90
2018-07-23T02:17:02.283Z,99.90
2018-07-23T02:19:30.525Z,99.90
2018-07-23T02:21:58.804Z,99.90
2018-07-23T02:24:26.988Z,99.90
2018-07-23T02:26:55.202Z,99.90
2018-07-23T02:29:23.406Z,99.90
2018-07-23T02:31:51.616Z,99.90
2018-07-23T02:34:19.829Z,99.90
2018-07-23T02:36:48.097Z,99.90
2018-07-23T02:39:16.340Z,99.90
2018-07-23T02:41:44.549Z,99.90
2018-07-23T02:44:12.722Z,99.90
2018-07-23T02:46:40.927Z,99.90
2018-07-23T02:49:09.151Z,99.90
2018-07-23T02:51:37.363Z,99.90
2018-07-23T02:54:05.579Z,99.90
2018-07-23T02:56:33.797Z,99.90
2018-07-23T02:59:02.052Z,99.90
2018-07-23T03:01:30.421Z,99.90
2018-07-23T03:03:58.635Z,99.90
2018-07-23T03:06:28.476Z,99.90
2018-07-23T03:08:56.973Z,99.90
2018-07-23T03:11:25.542Z,99.90
2018-07-23T03:13:53.739Z,99.90
2018-07-23T03:16:22.135Z,99.90
2018-07-23T03:18:51.048Z,99.90
2018-07-23T03:21:19.242Z,99.90
2018-07-23T03:23:47.468Z,99.90
2018-07-23T03:26:15.667Z,99.90
2018-07-23T03:28:43.949Z,99.90
2018-07-23T03:31:12.163Z,99.90
2018-07-23T03:33:40.379Z,99.90
2018-07-23T03:36:08.576Z,99.90
2018-07-23T03:41:05.065Z,99.90
2018-07-23T03:43:33.271Z,99.90
2018-07-23T03:46:01.489Z,99.90
2018-07-23T03:48:29.753Z,99.90
2018-07-23T03:50:57.981Z,99.90
2018-07-23T03:53:26.180Z,99.90
2018-07-23T03:55:54.391Z,99.90
2018-07-23T03:58:22.637Z,99.90
2018-07-23T04:00:50.825Z,99.90
2018-07-23T04:03:19.185Z,99.90
2018-07-23T04:05:47.331Z,99.90
2018-07-23T04:08:15.585Z,99.90
2018-07-23T04:10:43.797Z,99.90
2018-07-23T04:13:12.013Z,99.90
2018-07-23T04:15:40.227Z,99.90
2018-07-23T04:18:08.512Z,99.90
2018-07-23T04:20:36.897Z,99.90
2018-07-23T04:23:06.008Z,99.90
2018-07-23T04:25:34.400Z,99.90
2018-07-23T04:28:02.836Z,99.90
2018-07-23T04:30:31.044Z,99.90
2018-07-23T04:34:28.469Z,99.90
2018-07-23T04:36:56.666Z,99.90
2018-07-23T04:39:24.864Z,99.90
2018-07-23T04:41:53.101Z,99.90
2018-07-23T04:44:21.329Z,99.90
2018-07-23T04:46:49.528Z,99.90
2018-07-23T04:49:17.719Z,99.90
2018-07-23T04:51:45.912Z,99.90
2018-07-23T04:54:14.132Z,99.90
2018-07-23T04:56:42.362Z,99.90
2018-07-23T04:59:10.545Z,99.90
2018-07-23T05:01:38.751Z,99.90
2018-07-23T05:04:06.935Z,99.90
2018-07-23T05:06:35.156Z,99.90
2018-07-23T05:09:03.946Z,99.90
2018-07-23T05:11:32.138Z,99.90
2018-07-23T05:14:00.324Z,99.90
2018-07-23T05:16:28.528Z,99.90
2018-07-23T05:18:56.723Z,99.90
2018-07-23T05:21:24.928Z,99.90
2018-07-23T05:23:53.174Z,99.90
2018-07-23T05:26:21.343Z,99.90
2018-07-23T05:28:49.554Z,99.90
2018-07-23T05:31:17.786Z,99.90
2018-07-23T05:33:46.052Z,99.90
2018-07-23T05:38:42.236Z,99.90
2018-07-23T05:41:10.428Z,99.90
2018-07-23T05:43:38.649Z,99.90
2018-07-23T05:46:06.831Z,99.90
2018-07-23T05:48:35.021Z,99.90
2018-07-23T05:51:03.219Z,99.90
2018-07-23T05:53:31.409Z,99.90
2018-07-23T05:55:59.603Z,99.90
2018-07-23T05:58:27.841Z,99.90
2018-07-23T06:00:56.113Z,99.90
2018-07-23T06:03:24.410Z,99.90
2018-07-23T06:05:52.609Z,99.90
2018-07-23T06:08:21.105Z,99.90
2018-07-23T06:10:49.300Z,99.90
2018-07-23T06:13:17.486Z,99.90
2018-07-23T06:15:45.712Z,99.90
2018-07-23T06:18:14.189Z,99.90
2018-07-23T06:20:42.405Z,99.90
2018-07-23T06:23:10.640Z,99.90
2018-07-23T06:25:38.834Z,99.90
2018-07-23T06:28:07.044Z,99.90
2018-07-23T06:30:35.218Z,99.90
2018-07-23T06:33:03.430Z,99.90
2018-07-23T06:35:31.623Z,99.90
2018-07-23T06:37:59.913Z,99.90
2018-07-23T06:40:28.104Z,99.90
2018-07-23T06:42:56.312Z,99.90
2018-07-23T06:45:24.513Z,99.90
2018-07-23T06:47:52.708Z,99.90
2018-07-23T06:50:20.956Z,99.90
2018-07-23T06:52:49.148Z,99.90
2018-07-23T06:55:17.361Z,99.90
2018-07-23T06:57:45.571Z,99.90
2018-07-23T07:00:13.774Z,99.90
2018-07-23T07:02:41.964Z,99.90
2018-07-23T07:05:10.236Z,99.90
2018-07-23T07:07:38.440Z,99.90
2018-07-23T07:10:06.847Z,99.90
2018-07-23T07:12:35.174Z,99.90
2018-07-23T07:15:03.407Z,99.90
2018-07-23T07:17:31.600Z,99.90
2018-07-23T07:19:59.868Z,99.90
2018-07-23T07:22:28.042Z,99.90
2018-07-23T07:24:56.268Z,99.70
2018-07-23T07:27:24.612Z,99.50
2018-07-23T07:32:20.838Z,99.00
2018-07-23T07:34:49.111Z,98.20
2018-07-23T07:37:17.276Z,98.30
2018-07-23T07:39:45.494Z,98.20
2018-07-23T07:42:13.686Z,97.60
2018-07-23T07:44:41.880Z,97.10
2018-07-23T07:47:10.114Z,97.00
2018-07-23T07:49:38.316Z,97.00
2018-07-23T07:52:06.531Z,96.70
2018-07-23T07:54:34.722Z,96.60
2018-07-23T07:57:02.949Z,96.50
2018-07-23T07:59:31.149Z,95.90
2018-07-23T08:01:59.348Z,95.40
2018-07-23T08:04:27.540Z,94.80
2018-07-23T08:06:55.856Z,94.40
2018-07-23T08:09:24.071Z,94.30
2018-07-23T08:11:52.238Z,93.90
2018-07-23T08:14:20.476Z,93.40
2018-07-23T08:16:48.683Z,92.50
2018-07-23T08:19:16.931Z,91.60
2018-07-23T08:21:45.123Z,91.50
2018-07-23T08:24:13.304Z,91.50
2018-07-23T08:26:41.502Z,91.50
2018-07-23T08:29:09.707Z,91.60
2018-07-23T08:31:37.916Z,91.60
2018-07-23T08:34:06.081Z,91.70
2018-07-23T08:36:34.266Z,91.40
2018-07-23T08:39:02.467Z,91.40
2018-07-23T08:41:30.681Z,90.90
2018-07-23T08:43:58.996Z,90.90
2018-07-23T08:46:27.194Z,90.60
2018-07-23T08:48:55.397Z,90.40
2018-07-23T08:51:23.660Z,90.30
2018-07-23T08:53:51.768Z,90.00
2018-07-23T08:56:19.999Z,89.50
2018-07-23T08:58:48.220Z,87.50
2018-07-23T09:01:16.411Z,86.80
2018-07-23T09:03:44.578Z,86.20
2018-07-23T09:06:12.795Z,83.80
2018-07-23T09:08:41.149Z,83.60
2018-07-23T09:11:09.249Z,83.70
2018-07-23T09:13:37.447Z,83.30
2018-07-23T09:16:05.701Z,81.30
2018-07-23T09:18:33.901Z,80.70
2018-07-23T09:21:03.016Z,81.10
2018-07-23T09:23:31.201Z,80.80
2018-07-23T09:25:59.480Z,79.00
2018-07-23T09:28:27.731Z,77.90
2018-07-23T09:30:56.423Z,77.20
2018-07-23T09:33:25.227Z,75.50
2018-07-23T09:35:54.195Z,74.90
2018-07-23T09:38:23.187Z,74.40
2018-07-23T09:40:51.785Z,73.10
2018-07-23T09:43:19.967Z,71.60
2018-07-23T09:48:16.391Z,70.10
2018-07-23T09:50:44.584Z,70.00
2018-07-23T09:53:12.813Z,68.10
2018-07-23T09:55:41.013Z,68.10
2018-07-23T09:58:09.282Z,66.20
2018-07-23T10:00:42.903Z,64.30
2018-07-23T10:03:11.224Z,62.00
2018-07-23T10:08:07.317Z,59.30
2018-07-23T10:10:35.533Z,58.20
2018-07-23T10:13:03.735Z,56.10
2018-07-23T10:15:31.917Z,53.90
2018-07-23T10:18:00.155Z,52.70
2018-07-23T10:20:28.418Z,51.10
2018-07-23T10:22:56.616Z,49.00
2018-07-23T10:25:24.843Z,46.70
2018-07-23T10:30:21.015Z,45.30
2018-07-23T10:32:49.195Z,45.40
2018-07-23T10:35:17.397Z,44.30
2018-07-23T10:37:45.619Z,44.60
2018-07-23T10:40:13.808Z,44.30
2018-07-23T10:42:42.023Z,43.40
2018-07-23T10:45:10.219Z,42.20
2018-07-23T10:47:38.401Z,40.70
2018-07-23T10:50:06.651Z,39.20
2018-07-23T10:52:34.853Z,39.10
2018-07-23T10:55:03.017Z,37.10
2018-07-23T10:57:31.201Z,38.40
2018-07-23T10:59:59.381Z,39.70
2018-07-23T11:02:27.791Z,41.60
2018-07-23T11:04:55.993Z,42.40
2018-07-23T11:07:24.262Z,43.80
2018-07-23T11:09:52.409Z,45.70
2018-07-23T11:12:20.647Z,46.10
2018-07-23T11:14:48.839Z,46.20
2018-07-23T11:17:17.032Z,46.20
2018-07-23T11:19:45.237Z,44.70
2018-07-23T11:22:13.469Z,43.10
2018-07-23T11:27:09.784Z,40.80
2018-07-23T11:29:37.983Z,39.20
2018-07-23T11:32:06.274Z,39.30
2018-07-23T11:34:34.445Z,38.30
2018-07-23T11:37:02.663Z,36.80
2018-07-23T11:39:30.883Z,37.20
2018-07-23T11:41:59.040Z,35.70
2018-07-23T11:44:27.237Z,35.20
2018-07-23T11:46:55.446Z,35.10
2018-07-23T11:51:51.766Z,35.10
2018-07-23T11:54:19.944Z,35.30
2018-07-23T11:56:48.247Z,34.10
2018-07-23T11:59:16.454Z,33.70
2018-07-23T12:04:12.590Z,32.90
2018-07-23T12:06:40.773Z,32.80
2018-07-23T12:09:10.062Z,33.00
2018-07-23T12:11:38.266Z,34.10
2018-07-23T12:16:35.044Z,36.30
2018-07-23T12:19:03.244Z,37.50
2018-07-23T12:21:31.426Z,36.10
2018-07-23T12:23:59.794Z,35.30
2018-07-23T12:26:27.992Z,34.60
2018-07-23T12:28:56.211Z,33.70
2018-07-23T12:31:24.399Z,33.80
2018-07-23T12:33:52.622Z,34.70
2018-07-23T12:36:20.802Z,33.90
2018-07-23T12:38:48.998Z,33.20
2018-07-23T12:41:17.196Z,33.00
2018-07-23T12:43:45.414Z,34.10
2018-07-23T12:46:13.694Z,35.10
2018-07-23T12:48:41.922Z,37.00
2018-07-23T12:51:10.334Z,37.50
2018-07-23T12:53:38.546Z,36.30
2018-07-23T12:56:06.810Z,35.90
2018-07-23T12:58:35.028Z,35.40
2018-07-23T13:01:03.202Z,34.30
2018-07-23T13:03:31.450Z,33.50
2018-07-23T13:05:59.652Z,33.90
2018-07-23T13:08:27.888Z,35.30
2018-07-23T13:10:56.090Z,35.50
2018-07-23T13:13:24.318Z,36.20
2018-07-23T13:15:52.502Z,36.20
2018-07-23T13:18:20.963Z,35.10
2018-07-23T13:20:49.170Z,34.50
2018-07-23T13:23:17.380Z,34.50
2018-07-23T13:25:45.585Z,34.20
2018-07-23T13:28:13.769Z,33.00
2018-07-23T13:30:41.972Z,32.50
2018-07-23T13:33:10.185Z,32.10
2018-07-23T13:35:38.422Z,31.50
2018-07-23T13:38:06.753Z,30.90
2018-07-23T13:40:34.883Z,31.60
2018-07-23T13:43:03.072Z,31.50
2018-07-23T13:45:31.263Z,32.00
2018-07-23T13:47:59.610Z,31.80
2018-07-23T13:50:27.807Z,31.30
2018-07-23T13:52:56.068Z,30.90
2018-07-23T13:55:24.263Z,31.20
2018-07-23T13:57:52.537Z,30.80
2018-07-23T14:00:20.745Z,31.10
2018-07-23T14:02:49.206Z,30.50
2018-07-23T14:05:17.406Z,30.00
2018-07-23T14:07:45.601Z,29.90
2018-07-23T14:10:13.804Z,29.30
2018-07-23T14:15:09.972Z,30.70
2018-07-23T14:20:06.236Z,32.00
2018-07-23T14:22:34.431Z,31.70
2018-07-23T14:25:02.596Z,32.30
2018-07-23T14:27:30.806Z,33.10
2018-07-23T14:29:58.997Z,33.60
2018-07-23T14:32:27.206Z,33.50
2018-07-23T14:34:55.380Z,33.30
2018-07-23T14:37:23.904Z,32.80
2018-07-23T14:39:52.090Z,32.40
2018-07-23T14:42:20.272Z,31.60
2018-07-23T14:44:48.494Z,32.00
2018-07-23T14:47:16.708Z,32.70
2018-07-23T14:49:44.942Z,32.50
2018-07-23T14:52:13.091Z,34.00
2018-07-23T14:54:41.288Z,35.10
2018-07-23T14:57:09.488Z,36.40
2018-07-23T14:59:37.690Z,36.90
2018-07-23T15:04:33.937Z,37.40
2018-07-23T15:09:30.172Z,39.30
2018-07-23T15:11:58.352Z,39.00
2018-07-23T15:14:26.539Z,40.10
2018-07-23T15:16:54.712Z,39.30
2018-07-23T15:19:22.924Z,38.90
2018-07-23T15:21:51.204Z,38.70
2018-07-23T15:24:19.408Z,39.00
2018-07-23T15:26:47.611Z,39.60
2018-07-23T15:29:15.814Z,38.50
2018-07-23T15:31:44.006Z,38.20
2018-07-23T15:34:12.206Z,38.40
2018-07-23T15:36:40.493Z,39.40
2018-07-23T15:39:09.838Z,40.10
2018-07-23T15:41:38.314Z,40.40
2018-07-23T15:44:06.667Z,40.30
2018-07-23T15:46:34.750Z,40.90
2018-07-23T15:49:02.998Z,40.60
2018-07-23T15:51:31.188Z,40.80
2018-07-23T15:53:59.550Z,41.60
2018-07-23T15:58:56.015Z,40.90
2018-07-23T16:01:24.226Z,41.20
2018-07-23T16:03:52.432Z,40.70
2018-07-23T16:06:20.615Z,40.80
2018-07-23T16:08:48.874Z,41.30
2018-07-23T16:11:17.056Z,40.60
2018-07-23T16:13:45.271Z,40.30
2018-07-23T16:16:13.460Z,40.60
2018-07-23T16:18:41.687Z,41.00
2018-07-23T16:21:09.916Z,40.70
2018-07-23T16:23:38.118Z,41.20
2018-07-23T16:28:34.254Z,42.00
2018-07-23T16:31:02.518Z,42.70
2018-07-23T16:33:30.726Z,42.50
2018-07-23T16:35:58.917Z,42.40
2018-07-23T16:38:27.170Z,42.40
2018-07-23T16:40:55.366Z,42.70
2018-07-23T16:43:23.712Z,43.20
2018-07-23T16:45:51.973Z,43.60
2018-07-23T16:48:20.216Z,43.50
2018-07-23T16:50:48.471Z,43.70
2018-07-23T16:53:16.650Z,44.00
2018-07-23T16:55:44.842Z,44.30
2018-07-23T16:58:13.081Z,44.50
2018-07-23T17:00:41.292Z,44.90
2018-07-23T17:03:09.463Z,45.00
2018-07-23T17:05:37.660Z,45.20
2018-07-23T17:08:05.910Z,45.40
2018-07-23T17:10:34.316Z,45.90
2018-07-23T17:13:02.584Z,45.90
2018-07-23T17:15:30.836Z,45.50
2018-07-23T17:17:59.357Z,45.30
2018-07-23T17:20:27.544Z,45.70
2018-07-23T17:22:56.900Z,45.60
2018-07-23T17:25:25.362Z,45.70
2018-07-23T17:30:22.485Z,46.10
2018-07-23T17:32:53.493Z,46.40
2018-07-23T17:35:21.706Z,46.60
2018-07-23T17:37:49.947Z,46.50
2018-07-23T17:40:18.182Z,46.60
2018-07-23T17:42:46.380Z,47.00
2018-07-23T17:45:14.636Z,47.30
2018-07-23T17:47:42.784Z,47.10
2018-07-23T17:50:10.956Z,47.00
2018-07-23T17:52:39.148Z,47.20
2018-07-23T17:55:07.409Z,47.20
2018-07-23T17:57:35.558Z,47.10
2018-07-23T18:00:03.806Z,47.40
2018-07-23T18:02:32.000Z,47.50
2018-07-23T18:05:00.200Z,47.60
2018-07-23T18:07:28.352Z,47.70
2018-07-23T18:09:56.570Z,47.40
2018-07-23T18:12:24.742Z,47.50
2018-07-23T18:17:20.930Z,48.20
2018-07-23T18:19:49.124Z,48.10
2018-07-23T18:22:17.335Z,48.30
2018-07-23T18:24:45.530Z,48.50
2018-07-23T18:27:13.732Z,48.70
2018-07-23T18:29:41.944Z,49.00
2018-07-23T18:32:10.131Z,49.20
2018-07-23T18:34:38.341Z,49.20
2018-07-23T18:37:06.569Z,49.20
2018-07-23T18:39:34.758Z,49.40
2018-07-23T18:42:02.963Z,49.60
2018-07-23T18:44:31.170Z,49.90
2018-07-23T18:46:59.447Z,50.10
2018-07-23T18:49:46.514Z,50.30
2018-07-23T18:52:15.322Z,50.70
2018-07-23T18:54:44.876Z,50.90
2018-07-23T18:57:13.094Z,51.10
2018-07-23T18:59:41.340Z,51.40
2018-07-23T19:02:10.633Z,51.50
2018-07-23T19:04:38.821Z,51.80
2018-07-23T19:07:07.596Z,51.90
2018-07-23T19:09:35.997Z,52.00
2018-07-23T19:12:04.223Z,52.40
2018-07-23T19:14:32.429Z,52.70
2018-07-23T19:17:01.700Z,53.00
2018-07-23T19:19:29.963Z,53.30
2018-07-23T19:21:58.130Z,53.50
2018-07-23T19:24:26.529Z,53.80
2018-07-23T19:26:54.730Z,54.00
2018-07-23T19:29:22.931Z,54.40
2018-07-23T19:31:51.229Z,54.60
2018-07-23T19:34:19.468Z,54.80
2018-07-23T19:36:47.693Z,55.10
2018-07-23T19:39:17.399Z,55.50
2018-07-23T19:41:45.715Z,56.10
2018-07-23T19:44:13.948Z,56.80
2018-07-23T19:46:42.343Z,57.30
2018-07-23T19:49:10.565Z,57.80
2018-07-23T19:51:38.763Z,58.30
2018-07-23T19:54:07.618Z,58.70
2018-07-23T19:59:03.859Z,59.20
2018-07-23T20:04:00.068Z,60.30
2018-07-23T20:06:28.629Z,60.10
2018-07-23T20:08:57.892Z,60.50
2018-07-23T20:11:26.817Z,60.90
2018-07-23T20:16:22.961Z,62.70
2018-07-23T20:21:19.218Z,63.20
2018-07-23T20:23:47.443Z,63.70
2018-07-23T20:26:15.645Z,64.00
2018-07-23T20:28:43.892Z,64.60
2018-07-23T20:31:12.127Z,65.30
2018-07-23T20:33:40.331Z,65.80
2018-07-23T20:36:08.749Z,66.20
2018-07-23T20:38:37.213Z,66.90
2018-07-23T20:41:05.508Z,67.30
2018-07-23T20:43:33.947Z,67.80
2018-07-23T20:46:02.541Z,68.40
2018-07-23T20:48:30.781Z,68.90
2018-07-23T20:50:58.999Z,69.20
2018-07-23T20:53:27.217Z,69.40
2018-07-23T20:55:55.430Z,70.10
2018-07-23T20:58:24.041Z,70.60
2018-07-23T21:00:52.269Z,70.70
2018-07-23T21:03:20.449Z,70.70
2018-07-23T21:05:48.658Z,71.20
2018-07-23T21:08:16.839Z,71.60
2018-07-23T21:10:45.172Z,71.80
2018-07-23T21:13:13.367Z,72.10
2018-07-23T21:15:41.613Z,72.50
2018-07-23T21:18:09.823Z,72.70
2018-07-23T21:20:38.111Z,73.00
2018-07-23T21:23:06.652Z,73.30
2018-07-23T21:25:34.881Z,73.80
2018-07-23T21:28:03.129Z,74.30
2018-07-23T21:32:59.423Z,75.30
2018-07-23T21:35:27.735Z,75.50
2018-07-23T21:37:56.421Z,76.00
2018-07-23T21:40:24.664Z,76.30
2018-07-23T21:42:52.882Z,76.70
2018-07-23T21:45:21.078Z,77.10
2018-07-23T21:47:49.412Z,77.60
2018-07-23T21:50:17.625Z,78.50
2018-07-23T21:52:45.842Z,79.30
2018-07-23T21:55:14.057Z,80.00
2018-07-23T21:57:42.260Z,80.60
2018-07-23T22:00:12.569Z,80.80
2018-07-23T22:02:40.786Z,80.90
2018-07-23T22:05:09.374Z,81.40
2018-07-23T22:07:37.985Z,81.80
2018-07-23T22:10:07.086Z,82.40
2018-07-23T22:12:35.441Z,82.70
2018-07-23T22:15:04.564Z,82.70
2018-07-23T22:20:00.887Z,83.00
2018-07-23T22:22:29.085Z,83.20
2018-07-23T22:24:57.277Z,83.70
2018-07-23T22:29:53.452Z,84.30
2018-07-23T22:32:21.621Z,84.30
2018-07-23T22:34:49.825Z,84.30
2018-07-23T22:37:18.251Z,84.90
2018-07-23T22:39:46.532Z,85.20
2018-07-23T22:42:14.726Z,85.70
2018-07-23T22:44:46.599Z,86.50
2018-07-23T22:47:14.825Z,87.20
2018-07-23T22:49:43.054Z,87.50
2018-07-23T22:52:11.253Z,87.70
2018-07-23T22:54:39.475Z,88.00
2018-07-23T22:57:07.842Z,88.30
2018-07-23T22:59:36.099Z,88.40
2018-07-23T23:02:04.304Z,88.60
2018-07-23T23:04:32.578Z,88.90
2018-07-23T23:07:00.768Z,88.80
2018-07-23T23:09:28.969Z,89.30
2018-07-23T23:11:57.140Z,89.60
2018-07-23T23:14:25.370Z,89.80
2018-07-23T23:16:53.568Z,90.10
2018-07-23T23:19:21.761Z,90.00
2018-07-23T23:21:49.958Z,90.00
2018-07-23T23:24:18.168Z,90.40
2018-07-23T23:26:46.348Z,90.00
2018-07-23T23:31:42.540Z,90.00
2018-07-23T23:34:10.729Z,90.40
2018-07-23T23:36:38.950Z,90.10
2018-07-23T23:39:08.652Z,90.10
2018-07-23T23:41:36.831Z,90.10
2018-07-23T23:44:05.184Z,90.10
2018-07-23T23:46:33.422Z,90.20
2018-07-23T23:51:29.856Z,90.40
2018-07-23T23:53:58.036Z,90.40
2018-07-23T23:56:26.253Z,90.40
2018-07-23T23:58:54.501Z,90.50
